Time;durP1;ratioP1;P1;durP2;ratioP2;P2;SDS_P1;SDS_P2;PMS_P1;PMS_P2;Temp;Humidity;BMP_temperature;BMP_pressure;BME280_temperature;BME280_humidity;BME280_pressure;Samples;Min_cycle;Max_cycle;Signal;HPM_P1;HPM_P2
2022/11/15 00:00:08;;;;;;;35.13;13.65;;;;;;;;;;1037200;28;20112;-76
2022/11/15 00:00:38;;;;;;;27.55;12.73;;;;;;;;;;1037302;28;20198;-76
2022/11/15 00:01:13;;;;;;;24.50;10.93;;;;;;;;;;1037523;28;20105;-76
2022/11/15 00:01:43;;;;;;;30.90;12.35;;;;;;;;;;1037479;28;20095;-76
2022/11/15 00:02:14;;;;;;;23.08;13.18;;;;;;;;;;1038112;28;20091;-76
2022/11/15 00:02:44;;;;;;;34.15;15.95;;;;;;;;;;1037808;28;20506;-76
2022/11/15 00:03:15;;;;;;;32.72;14.98;;;;;;;;;;1038290;28;20380;-76
2022/11/15 00:03:46;;;;;;;29.50;13.65;;;;;;;;;;1038032;28;20528;-76
2022/11/15 00:04:17;;;;;;;34.17;14.27;;;;;;;;;;1037699;28;20520;-76
2022/11/15 00:04:47;;;;;;;31.10;12.15;;;;;;;;;;1038163;28;20032;-76
2022/11/15 00:05:18;;;;;;;26.13;11.15;;;;;;;;;;1037970;28;20472;-76
2022/11/15 00:05:49;;;;;;;29.40;13.75;;;;;;;;;;1038084;28;20432;-76
2022/11/15 00:06:19;;;;;;;29.50;13.23;;;;;;;;;;1038026;28;20033;-76
2022/11/15 00:06:50;;;;;;;27.80;13.23;;;;;;;;;;1037772;28;20562;-76
2022/11/15 00:07:20;;;;;;;25.75;12.23;;;;;;;;;;1037522;28;20032;-76
2022/11/15 00:07:51;;;;;;;36.50;14.10;;;;;;;;;;1037515;28;20061;-76
2022/11/15 00:08:21;;;;;;;34.90;11.82;;;;;;;;;;1037830;28;20565;-76
2022/11/15 00:08:52;;;;;;;37.45;14.90;;;;;;;;;;1037402;28;20025;-76
2022/11/15 00:09:22;;;;;;;30.08;13.75;;;;;;;;;;1038118;28;20029;-76
2022/11/15 00:09:53;;;;;;;41.38;14.32;;;;;;;;;;1037052;28;20021;-76
2022/11/15 00:10:23;;;;;;;32.80;14.75;;;;;;;;;;1037818;28;20017;-76
2022/11/15 00:10:55;;;;;;;33.22;16.55;;;;;;;;;;1037503;28;20025;-76
2022/11/15 00:11:26;;;;;;;36.97;17.23;;;;;;;;;;1037355;28;20029;-76
2022/11/15 00:11:56;;;;;;;34.03;18.13;;;;;;;;;;1037534;28;20120;-76
2022/11/15 00:12:28;;;;;;;34.40;15.15;;;;;;;;;;1037770;28;20413;-76
2022/11/15 00:12:58;;;;;;;39.60;14.55;;;;;;;;;;1037219;28;20123;-76
2022/11/15 00:13:30;;;;;;;32.13;13.23;;;;;;;;;;1037942;28;20481;-76
2022/11/15 00:14:02;;;;;;;32.72;14.90;;;;;;;;;;1037837;28;20374;-76
2022/11/15 00:14:32;;;;;;;29.40;12.27;;;;;;;;;;1038078;28;20017;-76
2022/11/15 00:15:03;;;;;;;25.85;13.63;;;;;;;;;;1037745;28;20014;-76
2022/11/15 00:15:37;;;;;;;31.77;14.82;;;;;;;;;;1037534;28;20489;-76
2022/11/15 00:16:08;;;;;;;28.40;13.50;;;;;;;;;;1037879;28;20072;-76
2022/11/15 00:16:39;;;;;;;39.30;13.68;;;;;;;;;;1037371;28;20116;-76
2022/11/15 00:17:09;;;;;;;39.88;16.30;;;;;;;;;;1037863;28;20037;-76
2022/11/15 00:17:40;;;;;;;29.10;13.80;;;;;;;;;;1037038;28;20064;-76
2022/11/15 00:18:14;;;;;;;26.95;12.77;;;;;;;;;;1037624;28;20033;-76
2022/11/15 00:18:44;;;;;;;32.85;14.50;;;;;;;;;;1033167;28;20029;-76
2022/11/15 00:19:15;;;;;;;32.65;13.77;;;;;;;;;;1033925;28;20033;-76
2022/11/15 00:19:46;;;;;;;28.48;13.13;;;;;;;;;;1033545;28;20513;-76
2022/11/15 00:20:19;;;;;;;27.45;12.75;;;;;;;;;;1033495;28;20034;-76
2022/11/15 00:20:50;;;;;;;31.52;13.82;;;;;;;;;;1037644;28;20025;-76
2022/11/15 00:21:20;;;;;;;29.50;13.25;;;;;;;;;;1037627;28;20017;-76
2022/11/15 00:21:51;;;;;;;30.00;15.05;;;;;;;;;;1037535;28;20033;-76
2022/11/15 00:22:21;;;;;;;33.42;14.18;;;;;;;;;;1037486;28;20022;-76
2022/11/15 00:22:52;;;;;;;33.13;14.13;;;;;;;;;;1037438;28;20111;-76
2022/11/15 00:23:22;;;;;;;26.20;12.60;;;;;;;;;;1037511;28;20497;-76
2022/11/15 00:23:53;;;;;;;24.25;12.00;;;;;;;;;;1037808;28;20473;-76
2022/11/15 00:24:23;;;;;;;27.30;14.32;;;;;;;;;;1037392;28;20021;-76
2022/11/15 00:24:54;;;;;;;32.30;15.23;;;;;;;;;;1037256;28;20103;-76
2022/11/15 00:25:24;;;;;;;32.60;16.48;;;;;;;;;;1037524;28;20022;-76
2022/11/15 00:25:56;;;;;;;39.35;17.20;;;;;;;;;;1037503;28;20036;-76
2022/11/15 00:26:26;;;;;;;49.88;20.20;;;;;;;;;;1037840;28;20079;-76
2022/11/15 00:26:57;;;;;;;38.45;20.25;;;;;;;;;;1036612;28;20029;-76
2022/11/15 00:27:27;;;;;;;37.22;22.50;;;;;;;;;;1037543;28;20025;-76
2022/11/15 00:27:59;;;;;;;35.47;19.23;;;;;;;;;;1037335;28;20022;-76
2022/11/15 00:28:29;;;;;;;36.83;15.48;;;;;;;;;;1038664;28;20108;-76
2022/11/15 00:29:00;;;;;;;38.08;18.98;;;;;;;;;;1039429;28;20064;-76
2022/11/15 00:29:31;;;;;;;31.60;18.17;;;;;;;;;;1039605;28;20029;-76
2022/11/15 00:30:01;;;;;;;47.13;19.83;;;;;;;;;;1037503;28;20537;-76
2022/11/15 00:30:32;;;;;;;40.83;17.80;;;;;;;;;;1037801;28;20061;-76
2022/11/15 00:31:06;;;;;;;33.03;14.63;;;;;;;;;;1038359;28;20018;-76
2022/11/15 00:31:37;;;;;;;26.92;15.15;;;;;;;;;;1036256;28;20030;-76
2022/11/15 00:32:07;;;;;;;34.15;16.85;;;;;;;;;;1037571;28;20476;-76
2022/11/15 00:32:38;;;;;;;43.25;17.20;;;;;;;;;;1037531;28;20499;-76
2022/11/15 00:33:08;;;;;;;27.60;14.82;;;;;;;;;;1037661;28;20456;-76
2022/11/15 00:33:39;;;;;;;34.47;17.63;;;;;;;;;;1037343;28;20016;-76
2022/11/15 00:34:10;;;;;;;36.28;17.85;;;;;;;;;;1036988;28;20049;-76
2022/11/15 00:34:40;;;;;;;37.53;16.50;;;;;;;;;;1037958;28;20026;-76
2022/11/15 00:35:11;;;;;;;44.50;18.10;;;;;;;;;;1037291;28;20030;-76
2022/11/15 00:35:41;;;;;;;31.38;15.52;;;;;;;;;;1037726;28;20021;-76
2022/11/15 00:36:12;;;;;;;42.88;18.13;;;;;;;;;;1038093;28;20569;-76
2022/11/15 00:36:43;;;;;;;35.33;17.83;;;;;;;;;;1037300;28;20120;-76
2022/11/15 00:37:13;;;;;;;39.65;17.75;;;;;;;;;;1038393;28;20108;-76
2022/11/15 00:37:44;;;;;;;39.00;17.77;;;;;;;;;;1038528;28;20467;-76
2022/11/15 00:38:14;;;;;;;41.85;18.70;;;;;;;;;;1037175;28;20041;-76
2022/11/15 00:38:45;;;;;;;37.65;19.10;;;;;;;;;;1037364;28;20022;-76
2022/11/15 00:39:15;;;;;;;47.08;16.15;;;;;;;;;;1037582;28;20060;-76
2022/11/15 00:39:46;;;;;;;47.83;18.30;;;;;;;;;;1037396;28;20032;-76
2022/11/15 00:40:17;;;;;;;39.03;18.50;;;;;;;;;;1037982;28;20018;-76
2022/11/15 00:40:47;;;;;;;41.53;19.20;;;;;;;;;;1037517;28;20021;-76
2022/11/15 00:41:18;;;;;;;42.08;17.60;;;;;;;;;;1037637;28;20501;-76
2022/11/15 00:41:48;;;;;;;42.35;19.58;;;;;;;;;;1037326;28;20025;-76
2022/11/15 00:42:19;;;;;;;39.13;18.13;;;;;;;;;;1037386;28;20760;-76
2022/11/15 00:42:49;;;;;;;40.78;19.02;;;;;;;;;;1037663;28;20803;-76
2022/11/15 00:43:20;;;;;;;55.63;22.35;;;;;;;;;;1037228;28;20500;-76
2022/11/15 00:43:50;;;;;;;58.05;23.42;;;;;;;;;;1037384;28;20500;-75
2022/11/15 00:44:21;;;;;;;51.80;21.15;;;;;;;;;;1037532;28;20564;-75
2022/11/15 00:44:51;;;;;;;53.65;24.65;;;;;;;;;;1037265;28;20508;-75
2022/11/15 00:45:22;;;;;;;65.90;25.83;;;;;;;;;;1037781;28;20579;-75
2022/11/15 00:45:53;;;;;;;52.03;23.92;;;;;;;;;;1036165;28;20022;-75
2022/11/15 00:46:23;;;;;;;63.63;24.65;;;;;;;;;;1038210;28;20091;-75
2022/11/15 00:46:54;;;;;;;64.13;25.50;;;;;;;;;;1037901;28;20021;-75
2022/11/15 00:47:24;;;;;;;56.80;24.27;;;;;;;;;;1041487;28;20029;-75
2022/11/15 00:47:55;;;;;;;55.38;24.15;;;;;;;;;;1041453;28;20021;-75
2022/11/15 00:48:26;;;;;;;36.63;15.95;;;;;;;;;;1040572;28;20020;-75
2022/11/15 00:48:56;;;;;;;37.60;18.98;;;;;;;;;;1040677;28;20074;-75
2022/11/15 00:49:27;;;;;;;49.10;22.42;;;;;;;;;;1037804;28;20092;-75
2022/11/15 00:49:57;;;;;;;55.80;22.10;;;;;;;;;;1032345;28;20524;-75
2022/11/15 00:50:28;;;;;;;52.67;21.98;;;;;;;;;;1032609;28;20024;-75
2022/11/15 00:50:59;;;;;;;41.28;16.88;;;;;;;;;;1033149;28;20623;-75
2022/11/15 00:51:29;;;;;;;35.72;16.95;;;;;;;;;;1038794;28;20030;-75
2022/11/15 00:52:00;;;;;;;38.15;15.73;;;;;;;;;;1037148;28;20109;-75
2022/11/15 00:52:30;;;;;;;39.67;17.70;;;;;;;;;;1037273;28;20081;-75
2022/11/15 00:53:01;;;;;;;33.60;15.23;;;;;;;;;;1037402;28;20022;-75
2022/11/15 00:53:31;;;;;;;50.15;16.42;;;;;;;;;;1038118;28;20039;-75
2022/11/15 00:54:02;;;;;;;45.33;22.25;;;;;;;;;;1037365;28;20562;-75
2022/11/15 00:54:32;;;;;;;50.75;21.77;;;;;;;;;;1037492;28;20029;-75
2022/11/15 00:55:03;;;;;;;53.22;21.10;;;;;;;;;;1037279;28;20108;-75
2022/11/15 00:55:34;;;;;;;51.88;20.25;;;;;;;;;;1038182;28;20165;-75
2022/11/15 00:56:04;;;;;;;52.63;23.00;;;;;;;;;;1037483;28;20025;-75
2022/11/15 00:56:35;;;;;;;43.90;18.13;;;;;;;;;;1037410;28;20036;-75
2022/11/15 00:57:05;;;;;;;52.78;21.40;;;;;;;;;;1037699;28;20028;-75
2022/11/15 00:57:36;;;;;;;46.05;19.77;;;;;;;;;;1037557;28;20025;-75
2022/11/15 00:58:06;;;;;;;43.22;15.77;;;;;;;;;;1037581;28;20116;-75
2022/11/15 00:58:37;;;;;;;34.20;15.95;;;;;;;;;;1036850;28;20574;-75
2022/11/15 00:59:07;;;;;;;41.53;16.95;;;;;;;;;;1037821;28;20018;-75
2022/11/15 00:59:38;;;;;;;34.83;16.08;;;;;;;;;;1037644;28;20022;-75
2022/11/15 01:00:09;;;;;;;43.45;17.83;;;;;;;;;;1037477;28;20017;-75
2022/11/15 01:00:39;;;;;;;45.15;20.10;;;;;;;;;;1036310;28;20095;-75
2022/11/15 01:01:11;;;;;;;63.63;22.63;;;;;;;;;;1037398;28;20060;-75
2022/11/15 01:01:41;;;;;;;51.80;20.58;;;;;;;;;;1037388;28;20038;-75
2022/11/15 01:02:12;;;;;;;49.08;21.20;;;;;;;;;;1037482;28;20117;-75
2022/11/15 01:02:43;;;;;;;63.38;20.65;;;;;;;;;;1037205;28;20029;-75
2022/11/15 01:03:16;;;;;;;50.28;21.25;;;;;;;;;;1037655;28;20064;-76
2022/11/15 01:03:47;;;;;;;44.88;22.73;;;;;;;;;;1037389;28;20065;-76
2022/11/15 01:04:17;;;;;;;49.20;20.08;;;;;;;;;;1037289;28;20026;-76
2022/11/15 01:04:48;;;;;;;47.28;19.13;;;;;;;;;;1037291;28;20052;-76
2022/11/15 01:05:18;;;;;;;51.80;22.58;;;;;;;;;;1036424;28;20025;-76
2022/11/15 01:05:49;;;;;;;46.55;21.10;;;;;;;;;;1037173;28;20030;-76
2022/11/15 01:06:19;;;;;;;45.28;19.80;;;;;;;;;;1037348;28;20029;-76
2022/11/15 01:06:50;;;;;;;49.67;16.58;;;;;;;;;;1037287;28;20425;-76
2022/11/15 01:07:21;;;;;;;24.25;11.38;;;;;;;;;;1036880;28;20029;-75
2022/11/15 01:07:52;;;;;;;43.63;17.13;;;;;;;;;;1037168;28;20021;-75
2022/11/15 01:08:23;;;;;;;35.42;14.45;;;;;;;;;;1033175;28;20027;-75
2022/11/15 01:08:53;;;;;;;27.58;10.68;;;;;;;;;;1032133;28;20486;-75
2022/11/15 01:09:24;;;;;;;34.65;12.68;;;;;;;;;;1037681;28;20068;-75
2022/11/15 01:09:54;;;;;;;33.83;14.63;;;;;;;;;;1037296;28;20108;-75
2022/11/15 01:10:25;;;;;;;56.15;15.60;;;;;;;;;;1037665;28;20072;-75
2022/11/15 01:11:00;;;;;;;36.65;17.58;;;;;;;;;;1038016;28;20362;-75
2022/11/15 01:11:30;;;;;;;37.05;16.60;;;;;;;;;;1037621;28;20440;-75
2022/11/15 01:12:01;;;;;;;37.28;17.02;;;;;;;;;;1036725;28;20025;-75
2022/11/15 01:12:32;;;;;;;34.47;14.82;;;;;;;;;;1037307;28;20035;-75
2022/11/15 01:13:02;;;;;;;21.95;10.18;;;;;;;;;;1036337;28;20025;-75
2022/11/15 01:13:33;;;;;;;38.58;14.32;;;;;;;;;;1037550;28;20022;-75
2022/11/15 01:14:04;;;;;;;57.42;20.50;;;;;;;;;;1037579;28;20022;-75
2022/11/15 01:14:34;;;;;;;50.05;20.35;;;;;;;;;;1037808;28;20159;-75
2022/11/15 01:15:05;;;;;;;45.33;21.23;;;;;;;;;;1037211;28;20175;-75
2022/11/15 01:15:38;;;;;;;42.88;16.42;;;;;;;;;;1038313;28;20424;-75
2022/11/15 01:16:13;;;;;;;25.73;14.00;;;;;;;;;;1037256;28;20153;-75
2022/11/15 01:16:43;;;;;;;31.95;14.07;;;;;;;;;;1037645;28;20034;-75
2022/11/15 01:17:14;;;;;;;30.70;14.32;;;;;;;;;;1040603;28;20481;-75
2022/11/15 01:17:44;;;;;;;33.63;14.98;;;;;;;;;;1041226;28;20029;-75
2022/11/15 01:18:15;;;;;;;35.20;15.88;;;;;;;;;;1041285;28;20024;-75
2022/11/15 01:18:45;;;;;;;36.78;17.17;;;;;;;;;;1038196;28;20040;-75
2022/11/15 01:19:16;;;;;;;28.70;13.73;;;;;;;;;;1037522;28;20030;-75
2022/11/15 01:19:47;;;;;;;33.13;15.43;;;;;;;;;;1037122;28;20029;-76
2022/11/15 01:20:18;;;;;;;37.83;14.45;;;;;;;;;;1037215;28;20033;-76
2022/11/15 01:20:49;;;;;;;41.47;15.70;;;;;;;;;;1037605;28;20026;-75
2022/11/15 01:21:19;;;;;;;33.22;15.10;;;;;;;;;;1037274;28;20109;-75
2022/11/15 01:21:50;;;;;;;51.08;16.10;;;;;;;;;;1035426;28;20022;-75
2022/11/15 01:22:21;;;;;;;49.17;19.55;;;;;;;;;;1035171;28;20090;-75
2022/11/15 01:22:51;;;;;;;42.95;18.25;;;;;;;;;;1037014;28;20104;-75
2022/11/15 01:23:22;;;;;;;40.72;17.83;;;;;;;;;;1036451;28;20214;-77
2022/11/15 01:23:54;;;;;;;41.05;18.08;;;;;;;;;;1034916;28;20108;-77
2022/11/15 01:24:24;;;;;;;49.58;17.73;;;;;;;;;;1036297;28;20390;-77
2022/11/15 01:24:55;;;;;;;33.17;16.02;;;;;;;;;;1036712;28;20063;-77
2022/11/15 01:25:26;;;;;;;40.35;18.75;;;;;;;;;;1035356;28;20526;-77
2022/11/15 01:26:00;;;;;;;40.30;14.85;;;;;;;;;;1036544;28;20026;-76
2022/11/15 01:26:30;;;;;;;45.35;14.93;;;;;;;;;;1036732;28;20030;-77
2022/11/15 01:27:01;;;;;;;35.42;15.48;;;;;;;;;;1036725;28;20071;-77
2022/11/15 01:27:31;;;;;;;33.17;17.05;;;;;;;;;;1036590;28;20100;-76
2022/11/15 01:28:02;;;;;;;39.67;17.15;;;;;;;;;;1037197;28;20029;-76
2022/11/15 01:28:33;;;;;;;34.20;14.50;;;;;;;;;;1032814;28;20053;-76
2022/11/15 01:29:04;;;;;;;29.65;17.45;;;;;;;;;;1035097;28;20029;-76
2022/11/15 01:29:34;;;;;;;31.52;16.40;;;;;;;;;;1036616;28;20076;-77
2022/11/15 01:30:05;;;;;;;36.67;15.95;;;;;;;;;;1036058;28;20052;-77
2022/11/15 01:30:36;;;;;;;33.97;16.35;;;;;;;;;;1036201;28;20040;-77
2022/11/15 01:31:10;;;;;;;40.38;16.45;;;;;;;;;;1036278;28;20064;-76
2022/11/15 01:31:40;;;;;;;42.13;17.17;;;;;;;;;;1036881;28;20026;-76
2022/11/15 01:32:11;;;;;;;40.47;18.60;;;;;;;;;;1035078;28;20028;-80
2022/11/15 01:32:42;;;;;;;42.42;17.33;;;;;;;;;;1036035;28;20033;-76
2022/11/15 01:33:13;;;;;;;46.50;19.45;;;;;;;;;;1036131;28;20040;-76
2022/11/15 01:33:44;;;;;;;52.50;19.52;;;;;;;;;;1035251;28;20083;-75
2022/11/15 01:34:15;;;;;;;43.83;18.77;;;;;;;;;;1038664;28;20047;-76
2022/11/15 01:34:45;;;;;;;52.20;19.95;;;;;;;;;;1035140;28;20025;-75
2022/11/15 01:35:16;;;;;;;46.67;21.30;;;;;;;;;;1037654;28;20041;-76
2022/11/15 01:35:46;;;;;;;62.33;22.88;;;;;;;;;;1038108;28;20099;-75
2022/11/15 01:36:18;;;;;;;59.05;21.15;;;;;;;;;;1037433;28;20458;-75
2022/11/15 01:36:49;;;;;;;50.90;21.25;;;;;;;;;;1036804;28;20066;-75
2022/11/15 01:37:20;;;;;;;58.10;22.45;;;;;;;;;;1031526;28;20524;-76
2022/11/15 01:37:50;;;;;;;60.30;23.85;;;;;;;;;;1032205;28;20517;-76
2022/11/15 01:38:21;;;;;;;72.95;26.45;;;;;;;;;;1032749;28;20025;-76
2022/11/15 01:38:58;;;;;;;71.95;24.58;;;;;;;;;;1036013;28;20037;-76
2022/11/15 01:39:29;;;;;;;43.20;19.77;;;;;;;;;;1037343;28;20017;-77
2022/11/15 01:40:00;;;;;;;57.45;23.75;;;;;;;;;;1037841;28;20032;-75
2022/11/15 01:40:30;;;;;;;50.78;20.65;;;;;;;;;;1037477;28;20120;-76
2022/11/15 01:41:01;;;;;;;62.63;19.60;;;;;;;;;;1036878;28;20045;-75
2022/11/15 01:41:32;;;;;;;43.03;20.00;;;;;;;;;;1032834;28;20139;-75
2022/11/15 01:42:03;;;;;;;42.20;19.20;;;;;;;;;;1034104;28;20603;-76
2022/11/15 01:42:34;;;;;;;50.92;19.77;;;;;;;;;;1032770;28;20111;-76
2022/11/15 01:43:25;;;;;;;53.47;21.00;;;;;;;;;;1031939;28;20084;-77
2022/11/15 01:44:16;;;;;;;32.08;16.52;;;;;;;;;;1036185;28;20553;-77
2022/11/15 01:44:51;;;;;;;34.78;15.80;;;;;;;;;;1021703;28;20040;-77
2022/11/15 01:45:22;;;;;;;34.08;16.25;;;;;;;;;;1031746;28;20429;-75
2022/11/15 01:45:55;;;;;;;41.53;19.10;;;;;;;;;;1034583;28;20025;-80
2022/11/15 01:46:29;;;;;;;48.85;20.25;;;;;;;;;;1036948;28;20021;-79
2022/11/15 01:47:01;;;;;;;43.42;18.10;;;;;;;;;;1036144;28;20017;-78
2022/11/15 01:47:35;;;;;;;50.03;18.95;;;;;;;;;;1036815;28;20464;-80
2022/11/15 01:48:07;;;;;;;30.23;17.00;;;;;;;;;;1037869;28;20068;-78
2022/11/15 01:48:38;;;;;;;39.30;18.15;;;;;;;;;;1037463;28;20464;-79
2022/11/15 01:49:13;;;;;;;36.83;14.93;;;;;;;;;;1037088;28;20112;-78
2022/11/15 01:50:16;;;;;;;37.72;17.70;;;;;;;;;;1035937;28;20044;-78
2022/11/15 01:50:46;;;;;;;38.53;16.58;;;;;;;;;;1023820;28;20018;-78
2022/11/15 01:51:19;;;;;;;43.38;18.15;;;;;;;;;;1019963;29;20058;-78
2022/11/15 01:51:51;;;;;;;35.85;16.17;;;;;;;;;;1024931;28;20039;-79
2022/11/15 01:52:22;;;;;;;35.65;17.08;;;;;;;;;;1033336;28;20056;-80
2022/11/15 01:52:53;;;;;;;43.58;18.77;;;;;;;;;;1029508;28;20074;-79
2022/11/15 01:53:24;;;;;;;47.78;19.92;;;;;;;;;;1029174;28;20116;-79
2022/11/15 01:53:57;;;;;;;56.58;20.50;;;;;;;;;;1034024;28;20030;-80
2022/11/15 01:54:28;;;;;;;51.00;18.75;;;;;;;;;;1033315;28;20121;-79
2022/11/15 01:55:05;;;;;;;58.75;22.50;;;;;;;;;;1035052;28;20053;-79
2022/11/15 01:55:39;;;;;;;59.90;23.98;;;;;;;;;;1036721;28;20034;-80
2022/11/15 01:56:13;;;;;;;48.50;18.75;;;;;;;;;;1038031;28;20049;-78
2022/11/15 01:56:46;;;;;;;48.47;19.60;;;;;;;;;;1036148;28;20124;-78
2022/11/15 01:57:17;;;;;;;58.72;22.20;;;;;;;;;;1036910;28;20034;-79
2022/11/15 01:57:49;;;;;;;53.88;21.67;;;;;;;;;;1036404;28;20084;-80
2022/11/15 01:58:20;;;;;;;58.45;20.70;;;;;;;;;;1038078;28;20025;-80
2022/11/15 01:58:52;;;;;;;50.65;19.42;;;;;;;;;;1042201;28;20025;-77
2022/11/15 01:59:22;;;;;;;38.42;15.60;;;;;;;;;;1042430;28;20028;-78
2022/11/15 01:59:54;;;;;;;34.85;15.23;;;;;;;;;;1042318;28;20028;-77
2022/11/15 02:00:24;;;;;;;46.72;17.60;;;;;;;;;;1042571;28;20058;-77
2022/11/15 02:00:55;;;;;;;52.65;19.10;;;;;;;;;;1035353;28;20423;-75
2022/11/15 02:01:26;;;;;;;54.42;20.63;;;;;;;;;;1036579;28;20025;-77
2022/11/15 02:01:57;;;;;;;64.68;21.10;;;;;;;;;;1039018;28;20030;-78
2022/11/15 02:02:29;;;;;;;59.33;19.88;;;;;;;;;;1041878;28;20041;-80
2022/11/15 02:02:59;;;;;;;50.28;18.27;;;;;;;;;;1038368;28;20036;-78
2022/11/15 02:03:36;;;;;;;45.45;17.92;;;;;;;;;;1036909;28;20116;-77
2022/11/15 02:04:13;;;;;;;50.63;18.63;;;;;;;;;;1037016;28;20411;-77
2022/11/15 02:04:47;;;;;;;41.22;15.57;;;;;;;;;;1033813;28;20176;-77
2022/11/15 02:05:19;;;;;;;38.88;16.77;;;;;;;;;;1031988;28;20045;-79
2022/11/15 02:05:50;;;;;;;58.42;20.85;;;;;;;;;;1029767;28;20018;-79
2022/11/15 02:06:22;;;;;;;50.40;20.73;;;;;;;;;;1033234;28;20371;-78
2022/11/15 02:06:53;;;;;;;61.80;19.10;;;;;;;;;;1031578;28;20126;-79
2022/11/15 02:07:24;;;;;;;57.33;20.75;;;;;;;;;;1032977;28;20061;-78
2022/11/15 02:07:55;;;;;;;39.20;17.20;;;;;;;;;;1029569;28;20019;-79
2022/11/15 02:08:27;;;;;;;39.95;18.73;;;;;;;;;;1027447;28;20031;-81
2022/11/15 02:08:59;;;;;;;46.42;19.48;;;;;;;;;;1030464;28;20030;-81
2022/11/15 02:09:30;;;;;;;46.33;18.13;;;;;;;;;;1026175;28;20364;-79
2022/11/15 02:10:04;;;;;;;52.45;21.15;;;;;;;;;;1028187;28;20376;-79
2022/11/15 02:10:35;;;;;;;50.85;21.92;;;;;;;;;;1034778;28;20104;-79
2022/11/15 02:11:09;;;;;;;56.88;20.95;;;;;;;;;;1034618;28;20021;-78
2022/11/15 02:11:40;;;;;;;44.90;18.80;;;;;;;;;;1036772;28;20026;-79
2022/11/15 02:12:12;;;;;;;47.03;20.83;;;;;;;;;;1032626;28;20458;-78
2022/11/15 02:12:43;;;;;;;46.25;18.73;;;;;;;;;;1033390;28;20375;-77
2022/11/15 02:13:17;;;;;;;45.80;15.73;;;;;;;;;;1036109;28;20426;-80
2022/11/15 02:13:49;;;;;;;40.97;15.30;;;;;;;;;;1032893;28;20034;-80
2022/11/15 02:14:23;;;;;;;36.92;17.40;;;;;;;;;;1029748;28;20042;-78
2022/11/15 02:14:54;;;;;;;49.60;20.73;;;;;;;;;;1030718;28;20044;-78
2022/11/15 02:15:27;;;;;;;43.67;22.85;;;;;;;;;;1034947;28;20033;-79
2022/11/15 02:15:58;;;;;;;60.50;20.60;;;;;;;;;;1034472;28;20021;-79
2022/11/15 02:16:47;;;;;;;45.35;14.88;;;;;;;;;;1037232;28;20410;-80
2022/11/15 02:17:29;;;;;;;57.15;15.23;;;;;;;;;;1036226;28;20394;-78
2022/11/15 02:18:07;;;;;;;38.17;12.30;;;;;;;;;;1036721;28;20630;-79
2022/11/15 02:18:42;;;;;;;16.73;6.13;;;;;;;;;;1034595;28;20026;-79
2022/11/15 02:19:13;;;;;;;12.85;6.07;;;;;;;;;;1035775;28;20033;-80
2022/11/15 02:19:58;;;;;;;20.88;7.35;;;;;;;;;;1034126;28;20041;-78
2022/11/15 02:20:29;;;;;;;35.17;14.60;;;;;;;;;;1038690;28;20021;-81
2022/11/15 02:21:00;;;;;;;51.13;17.23;;;;;;;;;;1043212;23;20030;-77
2022/11/15 02:22:05;;;;;;;44.70;18.60;;;;;;;;;;1029667;28;20041;-77
2022/11/15 02:23:06;;;;;;;43.85;17.30;;;;;;;;;;1035922;28;20013;-77
2022/11/15 02:23:55;;;;;;;34.53;14.18;;;;;;;;;;1027120;28;20348;-76
2022/11/15 02:24:46;;;;;;;26.55;12.13;;;;;;;;;;1035610;28;20034;-78
2022/11/15 02:25:35;;;;;;;32.83;14.77;;;;;;;;;;1034061;28;20022;-77
2022/11/15 02:26:07;;;;;;;46.65;15.82;;;;;;;;;;1032746;28;20026;-77
2022/11/15 02:26:56;;;;;;;41.88;16.20;;;;;;;;;;1033942;28;20030;-77
2022/11/15 02:27:35;;;;;;;20.25;9.02;;;;;;;;;;1034080;28;20176;-78
2022/11/15 02:28:21;;;;;;;31.83;11.35;;;;;;;;;;1030113;28;20419;-77
2022/11/15 02:28:58;;;;;;;31.60;9.52;;;;;;;;;;1029560;28;20381;-79
2022/11/15 02:29:37;;;;;;;29.50;8.93;;;;;;;;;;1028261;28;20030;-78
2022/11/15 02:30:14;;;;;;;31.65;9.00;;;;;;;;;;1029301;28;20022;-78
2022/11/15 02:30:46;;;;;;;37.72;10.00;;;;;;;;;;1029785;28;20077;-79
2022/11/15 02:31:26;;;;;;;34.78;9.50;;;;;;;;;;1030073;28;20029;-78
2022/11/15 02:32:15;;;;;;;38.42;9.60;;;;;;;;;;1032518;28;20049;-79
2022/11/15 02:32:50;;;;;;;36.38;9.50;;;;;;;;;;1034256;28;20038;-78
2022/11/15 02:33:35;;;;;;;34.30;11.80;;;;;;;;;;1034913;28;20021;-77
2022/11/15 02:34:13;;;;;;;26.48;11.23;;;;;;;;;;1032786;28;20464;-78
2022/11/15 02:34:51;;;;;;;33.88;11.90;;;;;;;;;;1028533;28;20054;-78
2022/11/15 02:35:43;;;;;;;47.90;13.48;;;;;;;;;;1032323;28;20034;-78
2022/11/15 02:36:52;;;;;;;37.13;12.40;;;;;;;;;;1032595;28;20046;-78
2022/11/15 02:37:22;;;;;;;32.10;10.13;;;;;;;;;;1033977;28;20057;-78
2022/11/15 02:37:53;;;;;;;26.40;12.98;;;;;;;;;;1034766;28;20156;-78
2022/11/15 02:38:32;;;;;;;45.50;15.48;;;;;;;;;;1035652;28;20065;-78
2022/11/15 02:39:08;;;;;;;44.95;16.35;;;;;;;;;;1032120;28;20057;-78
2022/11/15 02:39:45;;;;;;;43.00;17.42;;;;;;;;;;1027280;28;20031;-78
2022/11/15 02:40:29;;;;;;;38.22;15.10;;;;;;;;;;1028749;28;20506;-78
2022/11/15 02:41:19;;;;;;;39.28;15.40;;;;;;;;;;1026706;28;20030;-77
2022/11/15 02:42:03;;;;;;;45.97;16.67;;;;;;;;;;1030841;28;20022;-77
2022/11/15 02:43:58;;;;;;;45.03;17.77;;;;;;;;;;1034666;28;20014;-77
2022/11/15 02:44:59;;;;;;;48.78;17.05;;;;;;;;;;1035231;28;20026;-77
2022/11/15 02:45:52;;;;;;;53.47;20.10;;;;;;;;;;1033558;28;20054;-77
2022/11/15 02:47:35;;;;;;;54.03;21.00;;;;;;;;;;1032540;28;20122;-77
2022/11/15 02:48:11;;;;;;;48.25;17.67;;;;;;;;;;1036174;28;20101;-78
2022/11/15 02:48:46;;;;;;;49.55;19.65;;;;;;;;;;1032693;28;20489;-78
2022/11/15 02:49:23;;;;;;;58.35;19.67;;;;;;;;;;1031891;28;20230;-77
2022/11/15 02:50:10;;;;;;;36.47;16.25;;;;;;;;;;1032300;28;20038;-79
2022/11/15 02:50:46;;;;;;;44.50;18.88;;;;;;;;;;1033731;28;20126;-77
2022/11/15 02:51:26;;;;;;;60.92;18.65;;;;;;;;;;1032003;28;20034;-78
2022/11/15 02:52:05;;;;;;;65.50;19.00;;;;;;;;;;1034291;28;20099;-77
2022/11/15 02:52:38;;;;;;;63.28;23.15;;;;;;;;;;1033618;28;20013;-77
2022/11/15 02:53:13;;;;;;;52.65;20.90;;;;;;;;;;1032233;28;20022;-77
2022/11/15 02:53:53;;;;;;;52.20;21.42;;;;;;;;;;1031738;28;20018;-78
2022/11/15 02:54:30;;;;;;;56.88;25.13;;;;;;;;;;1030521;28;20033;-77
2022/11/15 02:55:34;;;;;;;55.17;23.85;;;;;;;;;;1030399;28;20512;-79
2022/11/15 02:56:13;;;;;;;64.43;25.05;;;;;;;;;;1023624;28;20023;-79
2022/11/15 02:56:46;;;;;;;57.88;27.58;;;;;;;;;;1029496;28;20026;-78
2022/11/15 02:57:19;;;;;;;77.20;28.98;;;;;;;;;;1028285;28;20091;-78
2022/11/15 02:58:06;;;;;;;68.95;29.08;;;;;;;;;;1028748;28;20181;-79
2022/11/15 02:58:39;;;;;;;56.08;25.35;;;;;;;;;;1028530;28;20030;-78
2022/11/15 02:59:13;;;;;;;76.75;26.67;;;;;;;;;;1031136;28;20044;-78
2022/11/15 03:00:02;;;;;;;52.53;26.88;;;;;;;;;;1032174;28;20029;-77
2022/11/15 03:00:44;;;;;;;62.53;27.25;;;;;;;;;;1032009;28;20421;-78
2022/11/15 03:01:28;;;;;;;69.47;27.35;;;;;;;;;;1032063;28;20153;-78
2022/11/15 03:02:09;;;;;;;61.03;28.35;;;;;;;;;;1030030;28;20035;-77
2022/11/15 03:02:54;;;;;;;60.53;25.30;;;;;;;;;;1029960;28;20022;-78
2022/11/15 03:03:43;;;;;;;50.50;23.65;;;;;;;;;;1032391;28;20037;-77
2022/11/15 03:04:30;;;;;;;61.13;26.33;;;;;;;;;;1034127;28;20112;-78
2022/11/15 03:05:23;;;;;;;43.65;18.15;;;;;;;;;;1034330;28;20117;-78
2022/11/15 03:06:21;;;;;;;47.67;22.92;;;;;;;;;;1031612;28;20394;-77
2022/11/15 03:07:12;;;;;;;60.47;22.40;;;;;;;;;;1031592;28;20021;-78
2022/11/15 03:07:47;;;;;;;54.72;20.50;;;;;;;;;;1033120;28;20524;-77
2022/11/15 03:08:28;;;;;;;53.67;23.05;;;;;;;;;;1028170;28;20568;-77
2022/11/15 03:09:07;;;;;;;73.88;27.25;;;;;;;;;;1025710;28;20133;-76
2022/11/15 03:09:45;;;;;;;67.18;24.63;;;;;;;;;;1028249;28;20054;-77
2022/11/15 03:10:37;;;;;;;74.35;26.17;;;;;;;;;;1032234;28;20328;-77
2022/11/15 03:11:16;;;;;;;57.65;21.00;;;;;;;;;;1029693;28;20597;-77
2022/11/15 03:11:54;;;;;;;80.68;26.45;;;;;;;;;;1023727;28;20047;-77
2022/11/15 03:12:49;;;;;;;70.43;25.40;;;;;;;;;;1027388;28;20120;-77
2022/11/15 03:13:29;;;;;;;42.85;16.80;;;;;;;;;;1020308;28;20108;-77
2022/11/15 03:14:02;;;;;;;37.97;16.35;;;;;;;;;;1028590;28;20584;-77
2022/11/15 03:14:46;;;;;;;49.05;17.80;;;;;;;;;;1031508;28;20121;-77
2022/11/15 03:15:41;;;;;;;49.25;18.98;;;;;;;;;;1031665;28;20034;-77
2022/11/15 03:16:20;;;;;;;47.50;19.05;;;;;;;;;;1018587;28;20032;-78
2022/11/15 03:17:01;;;;;;;34.63;17.73;;;;;;;;;;1026651;28;20410;-78
2022/11/15 03:18:08;;;;;;;39.80;20.08;;;;;;;;;;1028112;28;20128;-77
2022/11/15 03:18:53;;;;;;;44.47;18.90;;;;;;;;;;1023880;28;20039;-77
2022/11/15 03:19:33;;;;;;;54.15;20.50;;;;;;;;;;1024338;28;20835;-77
2022/11/15 03:20:10;;;;;;;45.05;20.33;;;;;;;;;;1023513;28;20350;-77
2022/11/15 03:20:54;;;;;;;51.13;18.88;;;;;;;;;;1028343;28;20050;-76
2022/11/15 03:21:27;;;;;;;42.20;19.48;;;;;;;;;;1025032;28;20054;-77
2022/11/15 03:22:01;;;;;;;40.60;20.15;;;;;;;;;;1021691;28;21061;-77